Time;durP1;ratioP1;P1;durP2;ratioP2;P2;SDS_P1;SDS_P2;PMS_P1;PMS_P2;Temp;Humidity;BMP_temperature;BMP_pressure;BME280_temperature;BME280_humidity;BME280_pressure;Samples;Min_cycle;Max_cycle;Signal;HPM_P1;HPM_P2
2023/01/08 00:01:08;;;;;;;2.93;2.77;;;18.00;58.20;;;;;;4995916;28;20469;-78
2023/01/08 00:03:37;;;;;;;3.10;2.90;;;18.00;58.20;;;;;;4995150;28;20445;-76
2023/01/08 00:06:06;;;;;;;2.70;2.60;;;18.00;58.20;;;;;;4985008;28;20441;-80
2023/01/08 00:08:35;;;;;;;2.93;2.77;;;18.00;58.10;;;;;;4987144;28;20449;-77
2023/01/08 00:11:03;;;;;;;5.93;2.80;;;18.00;58.20;;;;;;4993452;28;20461;-78
2023/01/08 00:13:31;;;;;;;3.17;2.97;;;18.00;58.10;;;;;;4979379;28;20441;-77
2023/01/08 00:16:03;;;;;;;2.57;2.40;;;18.00;58.00;;;;;;4982706;28;20456;-78
2023/01/08 00:18:31;;;;;;;3.50;3.20;;;18.00;58.10;;;;;;4992418;28;20504;-78
2023/01/08 00:20:58;;;;;;;3.30;3.00;;;18.00;58.10;;;;;;4985694;28;20477;-78
2023/01/08 00:23:27;;;;;;;2.70;2.60;;;18.00;58.10;;;;;;4990388;28;20450;-77
2023/01/08 00:25:56;;;;;;;3.70;2.90;;;18.00;58.10;;;;;;4991525;28;20441;-79
2023/01/08 00:28:24;;;;;;;2.97;2.77;;;18.00;58.10;;;;;;4996832;28;20441;-78
2023/01/08 00:30:52;;;;;;;2.90;2.70;;;18.00;58.10;;;;;;4996531;28;20453;-78
2023/01/08 00:33:21;;;;;;;3.00;2.80;;;18.10;58.60;;;;;;5000101;28;20430;-79
2023/01/08 00:35:49;;;;;;;3.60;3.30;;;18.00;58.10;;;;;;4994603;28;20536;-78
2023/01/08 00:38:17;;;;;;;2.70;2.60;;;18.00;58.10;;;;;;4996006;28;20548;-77
2023/01/08 00:40:45;;;;;;;3.40;3.10;;;18.00;58.10;;;;;;4994327;28;20468;-78
2023/01/08 00:43:14;;;;;;;2.83;2.67;;;18.10;58.20;;;;;;4988430;28;20480;-77
2023/01/08 00:45:42;;;;;;;3.47;3.17;;;18.10;58.30;;;;;;4994074;28;20454;-78
2023/01/08 00:48:10;;;;;;;2.77;2.57;;;18.10;58.30;;;;;;4995289;28;20457;-77
2023/01/08 00:50:39;;;;;;;3.00;2.80;;;18.10;58.20;;;;;;4990207;28;20473;-77
2023/01/08 00:53:06;;;;;;;3.10;2.73;;;18.10;58.20;;;;;;4993069;28;20456;-78
2023/01/08 00:55:35;;;;;;;3.00;2.80;;;18.00;58.20;;;;;;4990974;28;20451;-78
2023/01/08 00:58:02;;;;;;;2.93;2.73;;;18.10;58.20;;;;;;4993864;28;20474;-78
2023/01/08 01:00:32;;;;;;;3.50;3.30;;;18.10;58.30;;;;;;4993448;28;20472;-77
2023/01/08 01:03:00;;;;;;;3.03;2.83;;;18.00;58.20;;;;;;4993297;28;20449;-79
2023/01/08 01:05:28;;;;;;;3.37;3.03;;;18.00;58.20;;;;;;4994381;28;20449;-77
2023/01/08 01:07:55;;;;;;;3.43;3.00;;;18.10;58.30;;;;;;4988740;28;20496;-78
2023/01/08 01:10:24;;;;;;;2.87;2.67;;;18.10;58.40;;;;;;4992001;28;20580;-78
2023/01/08 01:12:51;;;;;;;3.00;2.80;;;18.10;58.30;;;;;;4994342;28;20956;-78
2023/01/08 01:15:19;;;;;;;3.10;2.90;;;18.10;58.50;;;;;;4993559;28;20449;-77
2023/01/08 01:17:49;;;;;;;3.10;2.90;;;18.10;58.40;;;;;;4988535;28;20488;-77
2023/01/08 01:20:17;;;;;;;4.17;3.00;;;18.10;58.50;;;;;;4990536;28;20483;-78
2023/01/08 01:22:46;;;;;;;3.13;2.93;;;18.10;58.50;;;;;;4993078;28;20469;-78
2023/01/08 01:25:14;;;;;;;3.60;2.90;;;18.10;58.50;;;;;;4992696;28;20492;-78
2023/01/08 01:27:43;;;;;;;3.20;3.00;;;18.10;58.60;;;;;;4991713;28;20951;-77
2023/01/08 01:30:12;;;;;;;2.90;2.70;;;18.10;58.60;;;;;;4988261;28;20476;-78
2023/01/08 01:32:39;;;;;;;2.93;2.73;;;18.10;58.60;;;;;;4993174;28;20453;-78
2023/01/08 01:35:09;;;;;;;2.87;2.67;;;18.10;58.60;;;;;;4996995;28;20461;-78
2023/01/08 01:37:37;;;;;;;3.27;3.00;;;18.10;58.60;;;;;;4991013;28;20478;-78
2023/01/08 01:40:06;;;;;;;3.27;2.97;;;18.10;58.60;;;;;;4993364;28;20472;-77
2023/01/08 01:42:43;;;;;;;3.20;2.90;;;18.10;58.60;;;;;;4991048;28;20449;-77
2023/01/08 01:45:18;;;;;;;3.00;2.87;;;18.10;58.60;;;;;;4990637;28;20448;-78
2023/01/08 01:47:46;;;;;;;3.13;2.93;;;18.10;58.60;;;;;;4991803;28;20461;-78
2023/01/08 01:50:17;;;;;;;2.80;2.60;;;18.10;58.70;;;;;;4991442;28;20468;-78
2023/01/08 01:52:46;;;;;;;2.60;2.40;;;18.10;58.80;;;;;;4988828;28;20449;-77
2023/01/08 01:55:14;;;;;;;3.07;2.87;;;18.10;58.70;;;;;;4989977;28;20460;-78
2023/01/08 01:57:42;;;;;;;3.60;3.13;;;18.10;58.70;;;;;;4990128;28;20471;-77
2023/01/08 02:00:11;;;;;;;2.83;2.73;;;18.10;58.70;;;;;;4992053;28;20476;-78
2023/01/08 02:02:39;;;;;;;2.53;2.43;;;18.10;58.60;;;;;;4989054;28;20524;-77
2023/01/08 02:05:08;;;;;;;2.47;2.37;;;18.20;58.80;;;;;;4991382;28;20449;-77
2023/01/08 02:07:40;;;;;;;3.30;2.97;;;18.20;58.80;;;;;;4988649;28;20454;-77
2023/01/08 02:10:10;;;;;;;2.90;2.70;;;18.10;58.70;;;;;;4993747;28;20472;-78
2023/01/08 02:12:39;;;;;;;3.00;2.80;;;18.10;58.80;;;;;;4987252;28;20449;-79
2023/01/08 02:15:11;;;;;;;3.40;3.10;;;18.10;58.70;;;;;;4993499;28;21000;-79
2023/01/08 02:17:41;;;;;;;3.87;2.67;;;18.10;58.70;;;;;;4989588;28;20461;-78
2023/01/08 02:20:11;;;;;;;2.90;2.70;;;18.10;58.60;;;;;;4992626;28;20485;-78
2023/01/08 02:22:52;;;;;;;3.00;2.87;;;18.10;58.80;;;;;;4986332;28;20484;-78
2023/01/08 02:25:27;;;;;;;3.13;2.93;;;18.10;59.30;;;;;;4992409;28;20445;-79
2023/01/08 02:27:57;;;;;;;2.90;2.70;;;18.10;58.80;;;;;;4996212;28;20467;-79
2023/01/08 02:30:25;;;;;;;3.00;2.70;;;18.10;58.80;;;;;;4991507;28;20473;-79
2023/01/08 02:32:53;;;;;;;2.17;2.07;;;18.10;58.90;;;;;;4992303;28;20468;-78
2023/01/08 02:35:22;;;;;;;2.43;2.33;;;18.10;58.90;;;;;;4988725;28;20461;-78
2023/01/08 02:37:49;;;;;;;3.10;2.90;;;18.10;59.00;;;;;;4988177;28;20475;-78
2023/01/08 02:40:21;;;;;;;2.80;2.60;;;18.10;59.00;;;;;;4986988;28;20511;-78
2023/01/08 02:42:51;;;;;;;2.80;2.60;;;18.10;59.00;;;;;;4989303;28;20458;-78
2023/01/08 02:45:26;;;;;;;4.07;2.80;;;18.10;59.00;;;;;;4990147;28;20453;-78
2023/01/08 02:47:55;;;;;;;3.23;2.33;;;18.10;59.10;;;;;;4989125;28;20453;-78
2023/01/08 02:50:25;;;;;;;2.70;2.60;;;18.10;59.10;;;;;;4984932;28;20477;-78
2023/01/08 02:52:58;;;;;;;2.67;2.47;;;18.10;59.20;;;;;;4988132;28;20535;-78
2023/01/08 02:55:27;;;;;;;2.73;2.63;;;18.10;59.10;;;;;;4988035;28;20446;-78
2023/01/08 02:57:54;;;;;;;3.70;2.83;;;18.00;59.10;;;;;;4989384;28;20457;-77
2023/01/08 03:00:24;;;;;;;2.73;2.53;;;18.00;59.10;;;;;;4987272;28;20477;-77
2023/01/08 03:02:54;;;;;;;2.57;2.47;;;18.10;59.10;;;;;;4991372;28;20466;-78
2023/01/08 03:05:23;;;;;;;2.70;2.50;;;18.10;59.20;;;;;;4987412;28;20493;-78
2023/01/08 03:07:51;;;;;;;2.80;2.70;;;18.10;59.10;;;;;;4984297;28;20459;-78
2023/01/08 03:10:20;;;;;;;2.93;2.73;;;18.10;59.10;;;;;;4990756;28;20487;-78
2023/01/08 03:12:50;;;;;;;2.43;2.33;;;18.10;59.10;;;;;;4990785;28;20525;-78
2023/01/08 03:15:21;;;;;;;2.83;2.73;;;18.10;59.20;;;;;;4985574;28;20483;-78
2023/01/08 03:17:51;;;;;;;2.60;2.30;;;18.10;59.20;;;;;;4986847;28;20457;-77
2023/01/08 03:20:20;;;;;;;2.50;2.40;;;18.10;59.10;;;;;;4988060;28;20485;-78
2023/01/08 03:22:50;;;;;;;2.73;2.60;;;18.00;59.20;;;;;;4993564;28;20458;-77
2023/01/08 03:25:18;;;;;;;2.70;2.50;;;18.00;59.50;;;;;;4991331;28;20452;-78
2023/01/08 03:27:48;;;;;;;2.90;2.70;;;18.10;59.30;;;;;;4988370;28;20460;-77
2023/01/08 03:30:16;;;;;;;2.90;2.70;;;18.10;59.30;;;;;;4986656;28;20526;-78
2023/01/08 03:32:43;;;;;;;2.60;2.50;;;18.10;59.30;;;;;;4989205;28;20457;-78
2023/01/08 03:35:14;;;;;;;2.93;2.63;;;18.10;59.20;;;;;;4989864;28;20464;-78
2023/01/08 03:37:44;;;;;;;2.40;2.20;;;18.10;59.30;;;;;;4991097;28;20984;-77
2023/01/08 03:40:13;;;;;;;5.03;2.50;;;18.10;59.30;;;;;;4991945;28;20477;-78
2023/01/08 03:42:41;;;;;;;2.73;2.47;;;18.10;59.40;;;;;;4989177;28;20453;-78
2023/01/08 03:45:09;;;;;;;2.67;2.57;;;18.10;59.30;;;;;;4990003;28;20493;-78
2023/01/08 03:47:38;;;;;;;2.80;2.70;;;18.10;59.90;;;;;;4988312;28;20464;-78
2023/01/08 03:50:09;;;;;;;2.60;2.47;;;18.10;59.30;;;;;;4988152;28;20472;-78
2023/01/08 03:52:39;;;;;;;2.60;2.50;;;18.10;59.30;;;;;;4995987;28;20452;-78
2023/01/08 03:55:07;;;;;;;3.00;2.60;;;18.10;59.20;;;;;;4990373;28;20450;-79
2023/01/08 03:57:35;;;;;;;2.70;2.53;;;18.10;59.20;;;;;;4988150;28;20460;-78
2023/01/08 04:00:03;;;;;;;3.67;2.50;;;18.10;59.40;;;;;;4989268;28;20481;-78
2023/01/08 04:02:31;;;;;;;2.33;2.10;;;18.10;59.40;;;;;;4991359;28;20457;-78
2023/01/08 04:04:59;;;;;;;3.60;2.47;;;18.10;59.40;;;;;;4989683;28;20965;-78
2023/01/08 04:07:27;;;;;;;3.63;2.30;;;18.10;59.40;;;;;;4992826;28;20469;-78
2023/01/08 04:09:56;;;;;;;3.10;2.90;;;18.10;59.40;;;;;;4993168;28;20460;-78
2023/01/08 04:12:24;;;;;;;2.43;2.33;;;18.10;59.30;;;;;;4992166;28;20446;-78
2023/01/08 04:14:52;;;;;;;2.50;2.30;;;18.10;59.30;;;;;;4989627;28;20457;-78
2023/01/08 04:17:20;;;;;;;3.60;2.43;;;18.10;59.30;;;;;;4995848;28;20459;-78
2023/01/08 04:19:48;;;;;;;3.00;2.80;;;18.10;59.30;;;;;;4993313;28;20478;-78
2023/01/08 04:22:16;;;;;;;2.70;2.60;;;18.10;59.30;;;;;;4994572;28;20456;-78
2023/01/08 04:24:44;;;;;;;4.90;2.23;;;18.10;59.40;;;;;;4994385;28;20453;-78
2023/01/08 04:27:13;;;;;;;2.77;2.60;;;18.10;59.30;;;;;;4994886;28;20452;-78
2023/01/08 04:29:41;;;;;;;3.63;2.50;;;18.10;59.30;;;;;;4994308;28;20449;-78
2023/01/08 04:32:09;;;;;;;3.07;2.87;;;18.10;59.40;;;;;;4992530;28;20469;-78
2023/01/08 04:34:37;;;;;;;2.70;2.50;;;18.10;59.20;;;;;;4992569;28;20453;-78
2023/01/08 04:37:05;;;;;;;2.53;2.43;;;18.10;59.30;;;;;;4995142;28;20453;-78
2023/01/08 04:39:33;;;;;;;2.60;2.30;;;18.10;59.30;;;;;;4991844;28;20455;-78
2023/01/08 04:42:01;;;;;;;2.40;2.23;;;18.10;59.30;;;;;;4990473;28;20481;-78
2023/01/08 04:44:30;;;;;;;2.30;2.20;;;18.10;59.30;;;;;;4990967;28;20462;-78
2023/01/08 04:46:58;;;;;;;3.23;2.60;;;18.20;59.40;;;;;;4990998;28;20453;-78
2023/01/08 04:49:26;;;;;;;2.50;2.30;;;18.10;59.30;;;;;;4990813;28;20480;-78
2023/01/08 04:51:54;;;;;;;2.70;2.50;;;18.10;59.30;;;;;;4990665;28;20470;-78
2023/01/08 04:54:22;;;;;;;3.30;2.13;;;18.10;59.30;;;;;;4993449;28;20456;-79
2023/01/08 04:56:51;;;;;;;2.73;2.50;;;18.10;59.30;;;;;;4996213;28;20461;-78
2023/01/08 04:59:19;;;;;;;2.77;2.57;;;18.10;59.40;;;;;;4993890;28;20452;-78
2023/01/08 05:01:49;;;;;;;3.50;2.50;;;18.10;59.30;;;;;;4991674;28;20476;-78
2023/01/08 05:04:17;;;;;;;2.50;2.30;;;18.10;59.40;;;;;;4991127;28;20458;-78
2023/01/08 05:06:45;;;;;;;2.60;2.40;;;18.10;59.40;;;;;;4992766;28;20457;-78
2023/01/08 05:09:13;;;;;;;2.60;2.50;;;18.20;59.50;;;;;;4988558;28;20964;-78
2023/01/08 05:11:42;;;;;;;2.67;2.47;;;18.20;59.40;;;;;;4990272;28;20473;-77
2023/01/08 05:14:10;;;;;;;2.67;2.47;;;18.20;59.50;;;;;;4987145;28;20452;-78
2023/01/08 05:16:38;;;;;;;3.23;2.40;;;18.20;59.50;;;;;;4992074;28;20468;-78
2023/01/08 05:19:08;;;;;;;2.70;2.23;;;18.10;59.50;;;;;;4986431;28;20457;-78
2023/01/08 05:21:36;;;;;;;2.70;2.50;;;18.10;59.50;;;;;;4990660;28;20473;-78
2023/01/08 05:24:04;;;;;;;2.53;2.33;;;18.20;59.70;;;;;;4987288;28;20462;-78
2023/01/08 05:26:33;;;;;;;2.67;2.43;;;18.20;59.60;;;;;;4994139;28;20473;-78
2023/01/08 05:29:01;;;;;;;1.97;1.87;;;18.20;59.70;;;;;;4989559;28;20484;-78
2023/01/08 05:31:29;;;;;;;2.50;2.30;;;18.20;59.60;;;;;;4986565;28;20477;-78
2023/01/08 05:33:57;;;;;;;2.27;2.17;;;18.20;59.60;;;;;;4985619;28;20908;-77
2023/01/08 05:36:27;;;;;;;2.20;2.00;;;18.20;59.70;;;;;;4991978;28;20454;-78
2023/01/08 05:38:55;;;;;;;2.23;2.13;;;18.20;59.60;;;;;;4990616;28;20464;-78
2023/01/08 05:41:24;;;;;;;2.33;2.23;;;18.20;59.70;;;;;;4989754;28;20485;-78
2023/01/08 05:43:51;;;;;;;2.90;2.10;;;18.20;59.70;;;;;;4989570;28;20960;-78
2023/01/08 05:46:20;;;;;;;2.50;2.40;;;18.20;59.80;;;;;;4988163;28;20462;-78
2023/01/08 05:48:48;;;;;;;2.10;2.00;;;18.20;59.80;;;;;;4987105;28;20457;-78
2023/01/08 05:51:16;;;;;;;2.77;2.57;;;18.10;59.70;;;;;;4990132;28;20485;-78
2023/01/08 05:53:45;;;;;;;2.47;2.27;;;18.20;59.80;;;;;;4991690;28;20464;-78
2023/01/08 05:56:13;;;;;;;2.30;2.20;;;18.20;59.80;;;;;;4991170;28;20461;-78
2023/01/08 05:58:41;;;;;;;2.20;2.10;;;18.20;59.80;;;;;;4990077;28;20956;-77
2023/01/08 06:01:10;;;;;;;2.80;2.50;;;18.20;59.80;;;;;;4991922;28;20476;-77
2023/01/08 06:03:37;;;;;;;2.30;2.20;;;18.10;59.80;;;;;;4986454;28;20443;-77
2023/01/08 06:06:06;;;;;;;2.33;2.17;;;18.10;59.80;;;;;;4955605;28;1023815;-77
2023/01/08 06:08:34;;;;;;;2.40;2.30;;;18.10;59.90;;;;;;4995966;28;20188;-78
2023/01/08 06:11:04;;;;;;;2.30;2.10;;;18.20;59.90;;;;;;4994026;28;20453;-78
2023/01/08 06:13:33;;;;;;;2.33;2.23;;;18.20;59.80;;;;;;4988728;28;20452;-77
2023/01/08 06:16:01;;;;;;;2.70;2.50;;;18.10;59.80;;;;;;4990474;28;20461;-77
2023/01/08 06:18:29;;;;;;;2.40;2.20;;;18.10;59.80;;;;;;4994352;28;20452;-77
2023/01/08 06:20:57;;;;;;;2.40;2.30;;;18.10;59.80;;;;;;4995229;28;20484;-78
2023/01/08 06:23:25;;;;;;;2.40;2.20;;;18.10;59.80;;;;;;4996188;28;20445;-78
2023/01/08 06:25:53;;;;;;;6.10;2.50;;;18.10;59.80;;;;;;4994697;28;20453;-78
2023/01/08 06:28:23;;;;;;;2.60;2.40;;;18.10;59.90;;;;;;4993199;28;20450;-77
2023/01/08 06:30:51;;;;;;;2.37;2.17;;;18.10;60.00;;;;;;4995068;28;20469;-77
2023/01/08 06:33:19;;;;;;;2.60;2.50;;;18.00;59.90;;;;;;4994455;28;20520;-77
2023/01/08 06:35:48;;;;;;;3.40;2.50;;;18.00;59.90;;;;;;4990997;28;20453;-77
2023/01/08 06:38:17;;;;;;;2.47;2.27;;;18.00;60.00;;;;;;4993693;28;20445;-78
2023/01/08 06:40:45;;;;;;;3.33;2.50;;;18.00;60.20;;;;;;4992909;28;20488;-77
2023/01/08 06:43:14;;;;;;;2.50;2.40;;;18.00;60.10;;;;;;4994514;28;20438;-78
2023/01/08 06:45:43;;;;;;;2.20;2.10;;;18.00;60.10;;;;;;4992084;28;20453;-77
2023/01/08 06:48:11;;;;;;;2.80;2.60;;;18.00;60.20;;;;;;4994554;28;20445;-77
2023/01/08 06:50:39;;;;;;;4.23;2.60;;;18.00;60.20;;;;;;4987196;28;20472;-77
2023/01/08 06:53:07;;;;;;;2.50;2.30;;;18.00;60.40;;;;;;4990980;28;20445;-78
2023/01/08 06:55:36;;;;;;;2.40;2.30;;;18.00;60.40;;;;;;4994962;28;20464;-78
2023/01/08 06:58:05;;;;;;;3.63;2.53;;;18.00;60.40;;;;;;4990807;28;20936;-77
2023/01/08 07:00:33;;;;;;;2.60;2.40;;;18.00;60.50;;;;;;4989995;28;20549;-78
2023/01/08 07:03:02;;;;;;;2.50;2.30;;;18.00;60.40;;;;;;4992104;28;20507;-77
2023/01/08 07:05:30;;;;;;;2.30;2.20;;;18.00;60.50;;;;;;4991885;28;20457;-77
2023/01/08 07:07:58;;;;;;;3.10;2.07;;;17.90;60.40;;;;;;4992652;28;20453;-77
2023/01/08 07:10:26;;;;;;;2.13;2.03;;;17.90;60.50;;;;;;4992273;28;20539;-77
2023/01/08 07:12:54;;;;;;;3.73;2.10;;;17.90;60.50;;;;;;4989952;28;20453;-77
2023/01/08 07:15:22;;;;;;;2.37;2.27;;;17.90;60.60;;;;;;4990994;28;20449;-77
2023/01/08 07:17:50;;;;;;;2.30;2.10;;;17.90;60.60;;;;;;4990033;28;20457;-77
2023/01/08 07:20:19;;;;;;;3.00;2.17;;;17.90;60.70;;;;;;4991312;28;20476;-77
2023/01/08 07:22:47;;;;;;;2.77;2.57;;;17.90;60.80;;;;;;4990508;28;20500;-77
2023/01/08 07:25:15;;;;;;;2.23;2.07;;;17.90;60.80;;;;;;4988491;28;20529;-77
2023/01/08 07:27:43;;;;;;;2.17;1.97;;;17.90;60.80;;;;;;4989659;28;20461;-77
2023/01/08 07:30:12;;;;;;;2.87;2.40;;;17.90;60.90;;;;;;4990196;28;20480;-77
2023/01/08 07:32:58;;;;;;;2.60;2.40;;;17.80;60.80;;;;;;4986564;28;20445;-77
2023/01/08 07:35:27;;;;;;;2.83;2.63;;;17.80;60.80;;;;;;4991610;28;20953;-78
2023/01/08 07:37:56;;;;;;;1.90;1.80;;;17.80;60.70;;;;;;4989281;28;20484;-77
2023/01/08 07:40:23;;;;;;;4.13;2.23;;;17.80;60.90;;;;;;4990489;28;20476;-77
2023/01/08 07:42:58;;;;;;;3.37;2.23;;;17.80;60.80;;;;;;4990375;28;20485;-77
2023/01/08 07:45:26;;;;;;;2.30;2.10;;;17.80;61.00;;;;;;4989496;28;20516;-77
2023/01/08 07:47:54;;;;;;;4.90;2.10;;;17.80;61.00;;;;;;4985353;28;20457;-77
2023/01/08 07:50:22;;;;;;;2.40;2.30;;;17.80;61.00;;;;;;4986422;28;20484;-77
2023/01/08 07:52:50;;;;;;;4.13;2.53;;;17.70;60.90;;;;;;4991244;28;20460;-77
2023/01/08 07:55:19;;;;;;;2.60;2.40;;;17.80;61.00;;;;;;4990771;28;20453;-77
2023/01/08 07:57:46;;;;;;;2.40;2.20;;;17.80;61.10;;;;;;4990299;28;20460;-77
2023/01/08 08:00:14;;;;;;;4.80;2.47;;;17.80;61.20;;;;;;4994737;28;20535;-77
2023/01/08 08:02:42;;;;;;;2.47;2.37;;;17.80;61.20;;;;;;4986466;28;20481;-77
2023/01/08 08:05:10;;;;;;;2.63;2.17;;;17.80;61.10;;;;;;4989175;28;20468;-77
2023/01/08 08:07:38;;;;;;;2.33;1.90;;;17.80;61.20;;;;;;4991338;28;20466;-77
2023/01/08 08:10:10;;;;;;;2.40;2.30;;;17.80;61.10;;;;;;4990714;28;20461;-77
2023/01/08 08:12:39;;;;;;;2.43;2.20;;;17.80;61.20;;;;;;4989568;28;20464;-77
2023/01/08 08:15:08;;;;;;;2.00;1.90;;;17.80;61.10;;;;;;4990827;28;20457;-77
2023/01/08 08:17:36;;;;;;;2.43;2.33;;;17.80;61.20;;;;;;4979340;28;20453;-78
2023/01/08 08:20:04;;;;;;;2.20;2.10;;;17.80;61.00;;;;;;4991129;28;20457;-77
2023/01/08 08:22:32;;;;;;;2.00;1.90;;;17.80;61.10;;;;;;4986463;28;20477;-77
2023/01/08 08:25:00;;;;;;;2.23;2.07;;;17.80;61.00;;;;;;4990787;28;20948;-77
2023/01/08 08:27:29;;;;;;;1.73;1.60;;;17.80;61.00;;;;;;4990224;28;20476;-77
2023/01/08 08:29:57;;;;;;;2.40;2.20;;;17.80;61.00;;;;;;4989262;28;21087;-77
2023/01/08 08:32:25;;;;;;;2.00;1.80;;;17.80;61.00;;;;;;4989820;28;20456;-77
2023/01/08 08:34:53;;;;;;;2.10;1.90;;;17.80;60.90;;;;;;4991754;28;20453;-77
2023/01/08 08:37:21;;;;;;;2.90;1.80;;;17.80;60.90;;;;;;4990060;28;20457;-77
2023/01/08 08:39:49;;;;;;;2.10;1.90;;;17.80;61.00;;;;;;4995457;28;20947;-77
2023/01/08 08:42:16;;;;;;;2.33;2.10;;;17.80;61.00;;;;;;4990666;28;20891;-78
2023/01/08 08:44:45;;;;;;;1.97;1.80;;;17.90;61.20;;;;;;4990295;28;20480;-77
2023/01/08 08:47:14;;;;;;;1.83;1.73;;;17.90;61.10;;;;;;4987269;28;20468;-77
2023/01/08 08:49:42;;;;;;;2.40;2.20;;;17.90;61.10;;;;;;4993533;28;20460;-78
2023/01/08 08:52:10;;;;;;;2.97;2.17;;;17.90;61.00;;;;;;4984007;28;20473;-78
2023/01/08 08:54:40;;;;;;;2.20;2.00;;;17.90;61.00;;;;;;4991062;28;20458;-77
2023/01/08 08:57:08;;;;;;;2.33;2.23;;;17.90;61.00;;;;;;4990994;28;20457;-77
2023/01/08 08:59:36;;;;;;;2.57;2.37;;;17.90;61.00;;;;;;4987115;28;20445;-77
2023/01/08 09:02:06;;;;;;;2.30;2.10;;;17.90;60.90;;;;;;4992682;28;20473;-77
2023/01/08 09:04:34;;;;;;;3.33;2.40;;;17.90;60.80;;;;;;4995502;28;20503;-78
2023/01/08 09:07:02;;;;;;;4.50;2.83;;;17.90;60.90;;;;;;4992627;28;20475;-77
2023/01/08 09:09:30;;;;;;;2.50;2.30;;;17.90;61.00;;;;;;4992351;28;20465;-77
2023/01/08 09:11:58;;;;;;;3.23;2.60;;;17.90;61.10;;;;;;4993487;28;20472;-77
2023/01/08 09:14:26;;;;;;;2.43;2.23;;;18.00;61.00;;;;;;4993453;28;20449;-77
2023/01/08 09:16:54;;;;;;;3.10;2.23;;;18.00;61.10;;;;;;4987275;28;20508;-77
2023/01/08 09:19:23;;;;;;;2.60;2.50;;;18.00;60.90;;;;;;4991246;28;20457;-77
2023/01/08 09:21:51;;;;;;;2.80;2.60;;;18.00;60.80;;;;;;4990031;28;20485;-77
2023/01/08 09:24:22;;;;;;;3.00;2.57;;;18.10;60.90;;;;;;4992199;28;20473;-77
2023/01/08 09:26:50;;;;;;;2.43;2.23;;;18.10;60.90;;;;;;4992090;28;20449;-77
2023/01/08 09:29:18;;;;;;;2.63;2.43;;;18.10;60.80;;;;;;4999454;28;20463;-77
2023/01/08 09:31:46;;;;;;;2.87;2.63;;;18.10;60.70;;;;;;4993351;28;20479;-77
2023/01/08 09:34:15;;;;;;;2.97;2.50;;;18.10;60.70;;;;;;4994463;28;20465;-77
2023/01/08 09:36:44;;;;;;;5.93;2.60;;;18.10;60.80;;;;;;4994218;28;20525;-78
2023/01/08 09:39:13;;;;;;;2.27;2.17;;;18.20;61.00;;;;;;4991735;28;20468;-76
2023/01/08 09:41:42;;;;;;;2.70;2.10;;;18.20;61.00;;;;;;4992229;28;20504;-77
2023/01/08 09:44:11;;;;;;;2.60;2.40;;;18.30;61.10;;;;;;4990068;28;20477;-77
2023/01/08 09:46:40;;;;;;;3.60;2.43;;;18.40;61.10;;;;;;4988096;28;20457;-77
2023/01/08 09:49:08;;;;;;;2.50;2.30;;;18.50;61.00;;;;;;4992482;28;20952;-76
2023/01/08 09:51:36;;;;;;;2.10;1.90;;;18.50;60.90;;;;;;4994489;28;20481;-76
2023/01/08 09:54:06;;;;;;;4.67;2.50;;;18.60;61.00;;;;;;4993556;28;20464;-77
2023/01/08 09:56:34;;;;;;;2.53;2.33;;;18.70;60.90;;;;;;4993095;28;20449;-77
2023/01/08 09:59:03;;;;;;;2.67;2.47;;;18.80;60.90;;;;;;4991636;28;20449;-76
2023/01/08 10:01:31;;;;;;;3.80;2.33;;;19.00;60.80;;;;;;4989408;28;20476;-77
2023/01/08 10:04:04;;;;;;;2.47;2.27;;;19.10;61.10;;;;;;4992611;28;20503;-76
2023/01/08 10:06:32;;;;;;;2.70;2.50;;;19.30;61.30;;;;;;4993964;28;20457;-77
2023/01/08 10:09:00;;;;;;;2.43;2.33;;;19.50;61.20;;;;;;4988443;28;20456;-77
2023/01/08 10:11:35;;;;;;;2.63;2.43;;;19.70;61.30;;;;;;4992391;28;20987;-76
2023/01/08 10:14:02;;;;;;;6.00;2.43;;;20.00;61.20;;;;;;4988963;28;20441;-76
2023/01/08 10:16:34;;;;;;;3.93;2.47;;;20.20;61.10;;;;;;4992329;28;20449;-77
2023/01/08 10:19:02;;;;;;;2.50;2.20;;;20.40;60.90;;;;;;4989264;28;20544;-77
2023/01/08 10:21:31;;;;;;;2.07;1.73;;;20.70;60.70;;;;;;4992701;28;20472;-77
2023/01/08 10:23:59;;;;;;;2.20;2.07;;;20.90;60.60;;;;;;4993284;28;20484;-77
2023/01/08 10:26:30;;;;;;;2.50;2.30;;;21.10;60.30;;;;;;4991565;28;20453;-77
2023/01/08 10:29:12;;;;;;;2.30;2.20;;;21.30;60.30;;;;;;4991957;28;20453;-77
2023/01/08 10:31:46;;;;;;;2.10;1.90;;;21.60;60.00;;;;;;4993124;28;20480;-77
2023/01/08 10:34:27;;;;;;;2.57;1.87;;;21.70;59.90;;;;;;4991752;28;20488;-77
2023/01/08 10:36:55;;;;;;;2.40;2.20;;;21.90;59.90;;;;;;4990346;28;20519;-77
2023/01/08 10:39:25;;;;;;;2.73;2.00;;;22.10;59.80;;;;;;4993582;28;20460;-77
2023/01/08 10:41:56;;;;;;;2.33;2.17;;;22.30;59.80;;;;;;4991773;28;20470;-77
2023/01/08 10:44:24;;;;;;;1.60;1.50;;;22.50;59.70;;;;;;4993905;28;20524;-77
2023/01/08 10:46:54;;;;;;;2.07;1.87;;;22.60;59.50;;;;;;4993215;28;20457;-77
2023/01/08 10:49:27;;;;;;;2.30;2.17;;;22.80;59.40;;;;;;4994233;28;20461;-77
2023/01/08 10:51:55;;;;;;;2.17;1.97;;;23.00;59.40;;;;;;4994606;28;20487;-77
2023/01/08 10:54:37;;;;;;;2.20;2.00;;;23.20;59.20;;;;;;4987105;28;20454;-77
2023/01/08 10:57:20;;;;;;;1.70;1.60;;;23.40;59.00;;;;;;4991823;28;20636;-77
2023/01/08 10:59:48;;;;;;;1.97;1.87;;;23.60;58.60;;;;;;4992145;28;20514;-77
2023/01/08 11:02:21;;;;;;;2.17;1.77;;;23.90;58.80;;;;;;4990899;28;20457;-77
2023/01/08 11:04:49;;;;;;;2.17;1.90;;;24.10;58.50;;;;;;4991932;28;20475;-77
2023/01/08 11:07:20;;;;;;;2.30;1.60;;;24.30;58.40;;;;;;4991682;28;20436;-77
2023/01/08 11:09:48;;;;;;;1.83;1.70;;;24.50;58.30;;;;;;4991021;28;20453;-77
2023/01/08 11:12:32;;;;;;;2.90;1.70;;;24.70;58.10;;;;;;4990807;28;20445;-77
2023/01/08 11:15:01;;;;;;;2.17;1.90;;;24.90;57.80;;;;;;4990576;28;20453;-77
2023/01/08 11:17:28;;;;;;;2.27;1.70;;;25.10;57.70;;;;;;4992335;28;20443;-77
2023/01/08 11:20:07;;;;;;;3.00;1.80;;;25.20;57.60;;;;;;4989123;28;20485;-77
2023/01/08 11:22:35;;;;;;;1.80;1.70;;;25.50;57.20;;;;;;4990418;28;20453;-77
2023/01/08 11:25:05;;;;;;;5.43;2.00;;;25.70;57.00;;;;;;4989536;28;20452;-77
2023/01/08 11:27:35;;;;;;;1.60;1.50;;;25.80;56.70;;;;;;4993238;28;20435;-77
2023/01/08 11:30:06;;;;;;;1.90;1.60;;;26.00;56.50;;;;;;4991189;28;20873;-77
2023/01/08 11:32:41;;;;;;;2.07;1.60;;;26.20;56.20;;;;;;4992789;28;20429;-77
2023/01/08 11:35:15;;;;;;;1.57;1.57;;;26.30;55.80;;;;;;4990770;28;20445;-77
2023/01/08 11:37:45;;;;;;;1.93;1.73;;;26.50;55.60;;;;;;4991186;28;20458;-77
2023/01/08 11:40:14;;;;;;;3.07;1.87;;;26.60;55.30;;;;;;4989418;28;20473;-77
2023/01/08 11:42:51;;;;;;;1.80;1.70;;;26.80;55.10;;;;;;4990237;28;20457;-77
2023/01/08 11:45:24;;;;;;;2.20;1.63;;;26.90;54.80;;;;;;4991634;28;20482;-77
2023/01/08 11:48:19;;;;;;;4.00;1.40;;;27.10;54.70;;;;;;4990200;28;20519;-77
2023/01/08 11:51:01;;;;;;;2.03;1.60;;;27.10;54.20;;;;;;4983861;28;21006;-77
2023/01/08 11:53:31;;;;;;;2.20;1.70;;;27.20;54.00;;;;;;4993151;28;20431;-77
2023/01/08 11:56:07;;;;;;;4.60;1.77;;;27.30;53.90;;;;;;4994147;28;20420;-77
2023/01/08 11:58:48;;;;;;;2.03;1.93;;;27.50;53.80;;;;;;4977234;28;20435;-79
2023/01/08 12:01:24;;;;;;;1.63;1.53;;;27.60;53.50;;;;;;4986301;28;20465;-78
2023/01/08 12:04:00;;;;;;;2.13;1.73;;;27.80;53.40;;;;;;4993357;28;20422;-78
2023/01/08 12:06:32;;;;;;;2.17;1.60;;;27.90;53.20;;;;;;4974656;28;20454;-77
2023/01/08 12:09:08;;;;;;;1.70;1.60;;;28.00;53.00;;;;;;4989601;28;20436;-78
2023/01/08 12:11:38;;;;;;;1.80;1.70;;;28.10;52.70;;;;;;4985706;28;20423;-77
2023/01/08 12:14:24;;;;;;;2.00;1.80;;;28.30;52.50;;;;;;4981299;28;20412;-78
2023/01/08 12:17:09;;;;;;;1.77;1.60;;;28.40;52.30;;;;;;4993571;28;20448;-77
2023/01/08 12:19:46;;;;;;;2.70;1.70;;;28.50;52.10;;;;;;4980605;28;20454;-77
2023/01/08 12:22:24;;;;;;;4.37;1.87;;;28.60;51.80;;;;;;4984209;28;20455;-77
2023/01/08 12:25:16;;;;;;;2.33;1.93;;;28.80;51.50;;;;;;4985574;28;20476;-77
2023/01/08 12:27:47;;;;;;;1.80;1.67;;;28.90;51.20;;;;;;4989018;28;20407;-77
2023/01/08 12:30:30;;;;;;;2.30;1.87;;;28.90;51.00;;;;;;4984670;28;20453;-76
2023/01/08 12:33:00;;;;;;;1.97;1.77;;;29.00;50.50;;;;;;4985075;28;20437;-76
2023/01/08 12:35:30;;;;;;;2.40;1.60;;;29.20;50.50;;;;;;4980911;28;20446;-75
2023/01/08 12:38:01;;;;;;;2.43;1.73;;;29.30;50.30;;;;;;4980378;28;20424;-77
2023/01/08 12:40:32;;;;;;;2.40;1.63;;;29.30;49.80;;;;;;4983995;28;20473;-76
2023/01/08 12:43:00;;;;;;;1.83;1.53;;;29.30;49.40;;;;;;4987152;28;20535;-76
2023/01/08 12:45:35;;;;;;;3.50;1.60;;;29.20;49.50;;;;;;4990344;28;20464;-76
2023/01/08 12:48:04;;;;;;;2.40;1.50;;;29.00;48.80;;;;;;4994449;28;20452;-76
2023/01/08 12:50:52;;;;;;;3.00;1.50;;;28.90;49.20;;;;;;4993128;28;20465;-76
2023/01/08 12:53:25;;;;;;;2.73;1.80;;;29.00;49.20;;;;;;4991532;28;20441;-76
2023/01/08 12:55:59;;;;;;;2.30;1.70;;;28.90;49.00;;;;;;4994181;28;20453;-79
2023/01/08 12:58:31;;;;;;;4.13;1.90;;;29.00;48.90;;;;;;4989911;28;20539;-75
2023/01/08 13:01:06;;;;;;;3.30;1.60;;;28.90;48.40;;;;;;4994180;28;20469;-75